createdAt,value
2022-09-24T00:02:11.282Z,68.63
2022-09-24T00:04:39.210Z,68.84
2022-09-24T00:07:07.241Z,69.10
2022-09-24T00:09:34.803Z,69.33
2022-09-24T00:12:02.858Z,69.23
2022-09-24T00:14:33.626Z,69.50
2022-09-24T00:17:01.751Z,69.58
2022-09-24T00:19:30.339Z,69.59
2022-09-24T00:21:57.894Z,69.57
2022-09-24T00:24:47.123Z,68.67
2022-09-24T00:27:14.707Z,68.40
2022-09-24T00:29:42.313Z,68.50
2022-09-24T00:32:11.225Z,68.60
2022-09-24T00:34:38.833Z,68.50
2022-09-24T00:37:06.329Z,68.48
2022-09-24T00:39:34.101Z,68.39
2022-09-24T00:42:01.806Z,68.41
2022-09-24T00:44:41.735Z,68.81
2022-09-24T00:47:35.024Z,69.44
2022-09-24T00:50:20.807Z,69.77
2022-09-24T00:53:19.918Z,70.10
2022-09-24T00:55:54.508Z,69.89
2022-09-24T00:58:23.284Z,69.68
2022-09-24T01:01:07.667Z,69.73
2022-09-24T01:03:41.070Z,70.08
2022-09-24T01:06:12.672Z,69.87
2022-09-24T01:08:41.750Z,70.08
2022-09-24T01:11:43.577Z,69.95
2022-09-24T01:14:36.077Z,69.88
2022-09-24T01:17:30.104Z,70.06
2022-09-24T01:20:38.631Z,70.14
2022-09-24T01:23:34.186Z,70.18
2022-09-24T01:26:42.734Z,70.02
2022-09-24T01:29:26.337Z,69.49
2022-09-24T01:32:18.809Z,69.08
2022-09-24T01:35:27.412Z,69.28
2022-09-24T01:38:07.630Z,69.18
2022-09-24T01:40:38.073Z,68.98
2022-09-24T01:43:09.131Z,68.92
2022-09-24T01:45:40.003Z,69.01
2022-09-24T01:48:08.958Z,69.16
2022-09-24T01:51:05.467Z,68.83
2022-09-24T01:53:42.556Z,68.84
2022-09-24T01:56:30.862Z,68.47
2022-09-24T01:59:31.778Z,68.26
2022-09-24T02:02:29.152Z,68.28
2022-09-24T02:05:12.737Z,68.07
2022-09-24T02:08:13.371Z,67.89
2022-09-24T02:10:52.357Z,67.44
2022-09-24T02:13:25.727Z,67.56
2022-09-24T02:16:00.723Z,67.33
2022-09-24T02:18:35.939Z,67.23
2022-09-24T02:21:11.946Z,67.29
2022-09-24T02:23:49.516Z,67.37
2022-09-24T02:26:17.370Z,67.65
2022-09-24T02:28:45.613Z,67.84
2022-09-24T02:31:26.947Z,67.60
2022-09-24T02:34:14.648Z,67.80
2022-09-24T02:36:43.331Z,67.81
2022-09-24T02:39:10.845Z,67.48
2022-09-24T02:41:38.735Z,67.69
2022-09-24T02:44:06.554Z,67.56
2022-09-24T02:46:34.244Z,67.56
2022-09-24T02:49:02.182Z,67.65
2022-09-24T02:51:30.518Z,67.79
2022-09-24T02:53:58.124Z,67.78
2022-09-24T02:56:30.108Z,68.10
2022-09-24T02:58:59.055Z,68.31
2022-09-24T03:01:30.601Z,68.22
2022-09-24T03:03:58.959Z,68.24
2022-09-24T03:06:27.901Z,68.52
2022-09-24T03:08:55.518Z,68.42
2022-09-24T03:11:24.118Z,68.28
2022-09-24T03:13:53.103Z,67.82
2022-09-24T03:16:21.524Z,68.13
2022-09-24T03:18:49.285Z,68.28
2022-09-24T03:21:19.436Z,68.33
2022-09-24T03:23:47.134Z,67.87
2022-09-24T03:26:15.315Z,67.87
2022-09-24T03:28:43.231Z,67.80
2022-09-24T03:31:11.153Z,67.67
2022-09-24T03:33:47.627Z,67.53
2022-09-24T03:36:16.661Z,66.99
2022-09-24T03:38:46.185Z,67.08
2022-09-24T03:41:14.520Z,67.05
2022-09-24T03:43:42.828Z,67.24
2022-09-24T03:46:12.558Z,67.43
2022-09-24T03:48:41.524Z,67.75
2022-09-24T03:51:15.047Z,67.71
2022-09-24T03:53:43.051Z,67.80
2022-09-24T03:56:11.943Z,67.97
2022-09-24T03:58:40.258Z,68.07
2022-09-24T04:01:10.619Z,68.09
2022-09-24T04:03:38.797Z,68.11
2022-09-24T04:06:06.908Z,68.34
2022-09-24T04:08:34.606Z,68.24
2022-09-24T04:11:02.163Z,68.16
2022-09-24T04:13:32.699Z,67.85
2022-09-24T04:16:04.862Z,67.72
2022-09-24T04:18:36.985Z,67.80
2022-09-24T04:21:07.191Z,67.83
2022-09-24T04:23:35.414Z,67.78
2022-09-24T04:26:02.998Z,67.93
2022-09-24T04:28:31.618Z,68.00
2022-09-24T04:31:00.233Z,68.21
2022-09-24T04:33:27.933Z,68.00
2022-09-24T04:35:55.514Z,68.10
2022-09-24T04:38:23.138Z,68.38
2022-09-24T04:40:51.152Z,68.50
2022-09-24T04:43:19.322Z,68.41
2022-09-24T04:45:47.558Z,68.57
2022-09-24T04:48:15.816Z,68.67
2022-09-24T04:50:46.309Z,68.67
2022-09-24T04:53:14.459Z,68.82
2022-09-24T04:55:42.170Z,68.75
2022-09-24T04:58:10.691Z,68.79
2022-09-24T05:00:38.419Z,69.01
2022-09-24T05:03:06.015Z,69.07
2022-09-24T05:05:36.498Z,69.34
2022-09-24T05:08:04.811Z,69.67
2022-09-24T05:10:33.384Z,69.67
2022-09-24T05:13:02.403Z,69.64
2022-09-24T05:15:33.163Z,69.53
2022-09-24T05:18:01.202Z,69.50
2022-09-24T05:20:29.058Z,69.49
2022-09-24T05:22:56.714Z,69.77
2022-09-24T05:25:26.991Z,69.74
2022-09-24T05:27:55.957Z,69.31
2022-09-24T05:30:26.930Z,69.11
2022-09-24T05:32:54.478Z,69.36
2022-09-24T05:35:25.339Z,69.32
2022-09-24T05:37:53.838Z,69.29
2022-09-24T05:41:00.867Z,69.43
2022-09-24T05:43:30.609Z,69.31
2022-09-24T05:45:58.940Z,69.82
2022-09-24T05:48:31.935Z,70.12
2022-09-24T05:51:01.979Z,70.32
2022-09-24T05:53:33.860Z,70.01
2022-09-24T05:56:01.898Z,69.59
2022-09-24T05:58:32.832Z,69.94
2022-09-24T06:01:01.765Z,70.00
2022-09-24T06:03:33.081Z,70.26
2022-09-24T06:06:03.552Z,70.35
2022-09-24T06:08:35.731Z,69.79
2022-09-24T06:11:06.587Z,69.48
2022-09-24T06:13:35.121Z,69.29
2022-09-24T06:16:05.356Z,69.15
2022-09-24T06:18:35.307Z,68.96
2022-09-24T06:21:05.785Z,68.69
2022-09-24T06:23:34.158Z,68.33
2022-09-24T06:26:03.258Z,68.20
2022-09-24T06:28:31.236Z,67.98
2022-09-24T06:31:01.325Z,68.04
2022-09-24T06:33:30.760Z,68.16
2022-09-24T06:36:03.839Z,68.58
2022-09-24T06:38:32.162Z,68.57
2022-09-24T06:41:03.614Z,68.36
2022-09-24T06:43:32.966Z,68.67
2022-09-24T06:46:03.919Z,68.82
2022-09-24T06:48:31.868Z,68.84
2022-09-24T06:51:00.407Z,68.85
2022-09-24T06:53:28.531Z,68.62
2022-09-24T06:55:59.792Z,68.15
2022-09-24T06:58:27.654Z,68.33
2022-09-24T07:01:01.788Z,68.33
2022-09-24T07:03:33.057Z,67.67
2022-09-24T07:06:03.837Z,67.44
2022-09-24T07:08:32.489Z,67.50
2022-09-24T07:11:00.950Z,66.75
2022-09-24T07:13:28.902Z,67.21
2022-09-24T07:15:56.719Z,67.48
2022-09-24T07:18:24.928Z,66.86
2022-09-24T07:20:56.926Z,66.46
2022-09-24T07:23:28.793Z,66.17
2022-09-24T07:25:57.874Z,65.95
2022-09-24T07:28:28.862Z,66.11
2022-09-24T07:30:58.903Z,66.28
2022-09-24T07:33:27.421Z,66.56
2022-09-24T07:35:55.150Z,66.04
2022-09-24T07:38:23.298Z,66.28
2022-09-24T07:40:51.600Z,66.02
2022-09-24T07:43:20.889Z,65.64
2022-09-24T07:45:49.239Z,65.85
2022-09-24T07:48:17.220Z,66.00
2022-09-24T07:50:44.890Z,65.39
2022-09-24T07:53:13.530Z,65.31
2022-09-24T07:55:41.770Z,65.15
2022-09-24T07:58:13.986Z,65.20
2022-09-24T08:00:42.706Z,65.01
2022-09-24T08:03:11.256Z,64.99
2022-09-24T08:05:45.583Z,65.05
2022-09-24T08:08:14.392Z,65.26
2022-09-24T08:10:43.070Z,64.37
2022-09-24T08:13:11.097Z,65.53
2022-09-24T08:15:38.857Z,64.96
2022-09-24T08:18:07.146Z,63.97
2022-09-24T08:20:36.882Z,64.61
2022-09-24T08:23:13.163Z,64.48
2022-09-24T08:25:41.019Z,64.53
2022-09-24T08:28:13.262Z,64.47
2022-09-24T08:30:41.472Z,64.36
2022-09-24T08:33:09.979Z,64.91
2022-09-24T08:35:40.230Z,65.97
2022-09-24T08:38:11.784Z,65.87
2022-09-24T08:40:54.686Z,67.04
2022-09-24T08:43:44.708Z,66.39
2022-09-24T08:46:48.944Z,65.47
2022-09-24T08:49:31.128Z,65.89
2022-09-24T08:52:46.233Z,66.12
2022-09-24T08:55:41.465Z,65.05
2022-09-24T08:58:31.657Z,64.49
2022-09-24T09:01:11.354Z,64.90
2022-09-24T09:04:29.277Z,59.74
2022-09-24T09:07:10.938Z,59.63
2022-09-24T09:10:09.753Z,60.33
2022-09-24T09:12:43.842Z,58.60
2022-09-24T09:15:35.288Z,55.26
2022-09-24T09:18:17.997Z,55.47
2022-09-24T09:20:48.835Z,57.64
2022-09-24T09:23:30.175Z,59.41
2022-09-24T09:26:00.231Z,61.12
2022-09-24T09:28:29.208Z,60.35
2022-09-24T09:31:26.689Z,59.84
2022-09-24T09:34:12.822Z,61.28
2022-09-24T09:36:55.803Z,62.17
2022-09-24T09:39:42.714Z,63.23
2022-09-24T09:42:34.489Z,62.49
2022-09-24T09:45:18.771Z,61.65
2022-09-24T09:47:56.310Z,60.10
2022-09-24T09:50:51.252Z,60.77
2022-09-24T09:53:25.107Z,59.75
2022-09-24T09:55:58.147Z,60.02
2022-09-24T09:58:31.089Z,58.74
2022-09-24T10:01:19.994Z,60.76
2022-09-24T10:03:50.950Z,61.51
2022-09-24T10:06:31.823Z,61.05
2022-09-24T10:09:13.203Z,61.14
2022-09-24T10:11:42.358Z,60.25
2022-09-24T10:14:14.105Z,59.42
2022-09-24T10:16:53.807Z,59.32
2022-09-24T10:19:29.123Z,59.82
2022-09-24T10:21:59.136Z,59.59
2022-09-24T10:24:30.071Z,59.61
2022-09-24T10:26:59.019Z,59.50
2022-09-24T10:29:54.392Z,60.99
2022-09-24T10:32:30.124Z,61.89
2022-09-24T10:35:22.444Z,61.62
2022-09-24T10:37:55.340Z,61.20
2022-09-24T10:40:38.183Z,61.20
2022-09-24T10:43:07.468Z,61.41
2022-09-24T10:45:41.289Z,60.31
2022-09-24T10:48:34.600Z,60.07
2022-09-24T10:51:08.297Z,59.22
2022-09-24T10:53:39.586Z,59.48
2022-09-24T10:56:35.165Z,60.14
2022-09-24T10:59:11.617Z,59.37
2022-09-24T11:01:55.783Z,59.44
2022-09-24T11:04:42.285Z,59.03
2022-09-24T11:07:34.075Z,58.90
2022-09-24T11:10:20.086Z,58.61
2022-09-24T11:13:23.416Z,58.74
2022-09-24T11:16:19.221Z,59.04
2022-09-24T11:18:53.068Z,59.39
2022-09-24T11:21:32.089Z,59.51
2022-09-24T11:24:25.068Z,59.46
2022-09-24T11:27:25.094Z,58.33
2022-09-24T11:30:09.393Z,58.22
2022-09-24T11:33:01.684Z,57.43
2022-09-24T11:36:07.918Z,56.75
2022-09-24T11:38:50.693Z,57.28
2022-09-24T11:41:43.361Z,56.45
2022-09-24T11:44:32.059Z,56.70
2022-09-24T11:47:14.188Z,57.44
2022-09-24T11:50:00.404Z,58.16
2022-09-24T11:53:08.965Z,58.00
2022-09-24T11:55:55.013Z,57.52
2022-09-24T11:58:32.728Z,57.72
2022-09-24T12:01:20.864Z,57.92
2022-09-24T12:04:25.005Z,56.86
2022-09-24T12:07:12.807Z,56.82
2022-09-24T12:10:35.107Z,56.66
2022-09-24T12:13:28.960Z,56.72
2022-09-24T12:16:03.087Z,57.35
2022-09-24T12:18:50.466Z,56.92
2022-09-24T12:21:28.521Z,56.49
2022-09-24T12:24:05.216Z,56.15
2022-09-24T12:26:39.715Z,55.48
2022-09-24T12:29:51.902Z,55.92
2022-09-24T12:32:40.946Z,56.76
2022-09-24T12:35:23.933Z,56.48
2022-09-24T12:38:21.418Z,55.81
2022-09-24T12:41:20.463Z,55.05
2022-09-24T12:44:03.331Z,54.55
2022-09-24T12:46:57.425Z,54.28
2022-09-24T12:49:35.704Z,55.03
2022-09-24T12:52:15.625Z,55.18
2022-09-24T12:54:45.239Z,54.78
2022-09-24T12:57:26.687Z,55.47
2022-09-24T12:59:58.937Z,55.68
2022-09-24T13:02:45.168Z,55.78
2022-09-24T13:05:30.256Z,55.92
2022-09-24T13:08:22.945Z,56.32
2022-09-24T13:11:06.017Z,56.58
2022-09-24T13:13:43.498Z,56.23
2022-09-24T13:16:19.407Z,57.41
2022-09-24T13:19:02.297Z,57.57
2022-09-24T13:21:32.231Z,57.38
2022-09-24T13:24:10.240Z,57.07
2022-09-24T13:26:38.276Z,57.44
2022-09-24T13:29:37.239Z,57.51
2022-09-24T13:32:06.035Z,57.01
2022-09-24T13:34:36.266Z,56.83
2022-09-24T13:37:46.917Z,57.43
2022-09-24T13:40:25.829Z,57.25
2022-09-24T13:43:18.202Z,57.81
2022-09-24T13:45:46.848Z,58.71
2022-09-24T13:48:33.103Z,58.49
2022-09-24T13:51:05.415Z,58.81
2022-09-24T13:53:47.255Z,57.44
2022-09-24T13:56:20.131Z,56.24
2022-09-24T13:58:51.349Z,57.11
2022-09-24T14:01:27.775Z,57.05
2022-09-24T14:04:00.469Z,57.43
2022-09-24T14:06:42.718Z,57.62
2022-09-24T14:09:29.022Z,57.33
2022-09-24T14:12:01.978Z,56.79
2022-09-24T14:14:34.902Z,57.38
2022-09-24T14:17:12.968Z,57.14
2022-09-24T14:19:41.808Z,57.92
2022-09-24T14:22:49.375Z,58.80
2022-09-24T14:25:30.354Z,58.39
2022-09-24T14:28:02.491Z,58.65
2022-09-24T14:30:34.781Z,59.08
2022-09-24T14:33:11.998Z,59.04
2022-09-24T14:35:45.266Z,59.52
2022-09-24T14:38:30.448Z,60.13
2022-09-24T14:41:05.814Z,60.27
2022-09-24T14:43:39.393Z,60.38
2022-09-24T14:46:34.829Z,60.19
2022-09-24T14:49:27.034Z,60.52
2022-09-24T14:51:54.976Z,59.98
2022-09-24T14:54:37.946Z,60.11
2022-09-24T14:57:19.647Z,60.06
2022-09-24T14:59:47.867Z,60.84
2022-09-24T15:02:15.881Z,60.45
2022-09-24T15:05:01.884Z,60.60
2022-09-24T15:07:35.064Z,60.45
2022-09-24T15:10:05.842Z,60.12
2022-09-24T15:12:37.302Z,60.01
2022-09-24T15:15:17.297Z,59.45
2022-09-24T15:17:47.424Z,60.51
2022-09-24T15:20:15.679Z,60.41
2022-09-24T15:22:43.688Z,60.51
2022-09-24T15:25:13.279Z,60.65
2022-09-24T15:27:45.466Z,61.06
2022-09-24T15:30:19.822Z,61.83
2022-09-24T15:32:50.153Z,61.44
2022-09-24T15:35:18.192Z,61.14
2022-09-24T15:37:46.284Z,61.32
2022-09-24T15:40:17.356Z,61.28
2022-09-24T15:42:45.143Z,61.31
2022-09-24T15:45:21.999Z,61.10
2022-09-24T15:47:51.198Z,61.06
2022-09-24T15:50:20.597Z,61.36
2022-09-24T15:52:59.363Z,61.33
2022-09-24T15:55:29.036Z,61.62
2022-09-24T15:57:57.227Z,61.68
2022-09-24T16:00:26.553Z,61.38
2022-09-24T16:02:57.306Z,61.16
2022-09-24T16:05:26.591Z,61.75
2022-09-24T16:07:54.431Z,62.66
2022-09-24T16:10:22.187Z,62.93
2022-09-24T16:12:50.109Z,62.36
2022-09-24T16:15:19.027Z,62.46
2022-09-24T16:17:50.043Z,62.91
2022-09-24T16:20:17.936Z,62.89
2022-09-24T16:22:45.690Z,63.14
2022-09-24T16:25:13.316Z,64.16
2022-09-24T16:27:40.977Z,64.69
2022-09-24T16:30:09.559Z,64.58
2022-09-24T16:32:37.442Z,65.64
2022-09-24T16:35:06.247Z,66.57
2022-09-24T16:37:34.021Z,66.18
2022-09-24T16:40:01.910Z,66.91
2022-09-24T16:42:32.912Z,68.86
2022-09-24T16:45:03.903Z,69.20
2022-09-24T16:47:31.622Z,70.47
2022-09-24T16:49:59.428Z,70.47
2022-09-24T16:52:30.141Z,70.98
2022-09-24T16:54:58.380Z,71.54
2022-09-24T16:57:30.420Z,71.29
2022-09-24T16:59:58.197Z,71.81
2022-09-24T17:02:26.904Z,72.38
2022-09-24T17:04:59.454Z,72.45
2022-09-24T17:07:32.646Z,72.67
2022-09-24T17:10:16.740Z,71.58
2022-09-24T17:12:48.238Z,72.00
2022-09-24T17:15:20.792Z,71.90
2022-09-24T17:17:50.880Z,71.93
2022-09-24T17:20:20.233Z,72.54
2022-09-24T17:22:49.959Z,72.48
2022-09-24T17:25:17.676Z,72.56
2022-09-24T17:27:46.015Z,73.18
2022-09-24T17:30:14.189Z,73.61
2022-09-24T17:32:41.871Z,73.70
2022-09-24T17:35:10.166Z,73.77
2022-09-24T17:37:38.638Z,74.08
2022-09-24T17:40:08.018Z,74.08
2022-09-24T17:42:35.853Z,73.93
2022-09-24T17:45:03.757Z,74.27
2022-09-24T17:47:51.399Z,74.39
2022-09-24T17:50:19.077Z,74.67
2022-09-24T17:52:46.744Z,74.10
2022-09-24T17:55:14.414Z,73.96
2022-09-24T17:57:42.152Z,74.48
2022-09-24T18:00:10.599Z,74.47
2022-09-24T18:02:39.366Z,74.49
2022-09-24T18:05:08.383Z,74.60
2022-09-24T18:07:36.183Z,74.27
2022-09-24T18:10:04.168Z,74.81
2022-09-24T18:12:31.867Z,74.97
2022-09-24T18:15:00.198Z,75.29
2022-09-24T18:17:27.901Z,75.22
2022-09-24T18:19:55.615Z,75.60
2022-09-24T18:22:23.327Z,75.85
2022-09-24T18:24:51.024Z,75.94
2022-09-24T18:27:18.778Z,75.77
2022-09-24T18:29:46.519Z,75.96
2022-09-24T18:32:16.003Z,76.10
2022-09-24T18:34:43.690Z,76.23
2022-09-24T18:37:11.394Z,75.90
2022-09-24T18:39:38.936Z,76.01
2022-09-24T18:42:06.591Z,76.30
2022-09-24T18:44:34.063Z,76.60
2022-09-24T18:47:01.802Z,76.94
2022-09-24T18:49:32.718Z,77.26
2022-09-24T18:52:00.267Z,77.49
2022-09-24T18:54:27.890Z,77.39
2022-09-24T18:56:55.662Z,77.18
2022-09-24T18:59:23.808Z,77.48
2022-09-24T19:01:51.881Z,77.23
2022-09-24T19:04:19.767Z,77.16
2022-09-24T19:06:49.927Z,76.85
2022-09-24T19:09:18.752Z,76.83
2022-09-24T19:11:48.439Z,76.93
2022-09-24T19:14:19.870Z,76.66
2022-09-24T19:16:48.119Z,76.85
2022-09-24T19:19:16.348Z,76.64
2022-09-24T19:21:44.253Z,76.53
2022-09-24T19:24:12.170Z,76.72
2022-09-24T19:26:40.035Z,76.79
2022-09-24T19:29:07.560Z,76.67
2022-09-24T19:31:38.233Z,76.51
2022-09-24T19:34:09.015Z,76.57
2022-09-24T19:36:44.136Z,76.66
2022-09-24T19:39:15.055Z,77.03
2022-09-24T19:41:43.144Z,77.60
2022-09-24T19:44:11.611Z,77.47
2022-09-24T19:46:39.954Z,77.91
2022-09-24T19:49:07.709Z,78.39
2022-09-24T19:51:36.895Z,78.52
2022-09-24T19:54:07.510Z,78.75
2022-09-24T19:56:36.627Z,79.37
2022-09-24T19:59:05.585Z,79.38
2022-09-24T20:01:34.606Z,79.36
2022-09-24T20:04:06.016Z,79.07
2022-09-24T20:06:36.309Z,78.64
2022-09-24T20:09:05.168Z,78.96
2022-09-24T20:11:33.342Z,78.23
2022-09-24T20:14:01.986Z,78.16
2022-09-24T20:16:33.527Z,78.05
2022-09-24T20:19:03.436Z,78.06
2022-09-24T20:21:35.434Z,77.57
2022-09-24T20:24:04.639Z,77.24
2022-09-24T20:26:52.045Z,77.31
2022-09-24T20:29:21.683Z,77.95
2022-09-24T20:31:53.077Z,78.00
2022-09-24T20:34:23.685Z,77.64
2022-09-24T20:36:52.011Z,78.00
2022-09-24T20:39:20.306Z,78.39
2022-09-24T20:41:49.484Z,77.89
2022-09-24T20:44:17.882Z,78.13
2022-09-24T20:46:45.613Z,78.00
2022-09-24T20:49:22.553Z,78.19
2022-09-24T20:51:57.401Z,78.21
2022-09-24T20:54:28.756Z,77.90
2022-09-24T20:56:56.673Z,77.57
2022-09-24T20:59:27.124Z,77.78
2022-09-24T21:01:55.757Z,77.38
2022-09-24T21:04:24.010Z,77.70
2022-09-24T21:06:55.265Z,77.80
2022-09-24T21:09:23.034Z,77.81
2022-09-24T21:11:50.646Z,77.76
2022-09-24T21:14:18.603Z,77.74
2022-09-24T21:16:46.841Z,78.03
2022-09-24T21:19:16.044Z,78.01
2022-09-24T21:21:43.779Z,78.17
2022-09-24T21:24:14.546Z,78.23
2022-09-24T21:26:45.106Z,78.08
2022-09-24T21:29:19.001Z,78.07
2022-09-24T21:31:47.817Z,77.93
2022-09-24T21:34:19.926Z,78.17
2022-09-24T21:36:48.143Z,77.98
2022-09-24T21:39:23.991Z,77.98
2022-09-24T21:41:55.386Z,78.11
2022-09-24T21:44:22.952Z,78.14
2022-09-24T21:46:52.881Z,78.36
2022-09-24T21:49:21.081Z,78.07
2022-09-24T21:51:48.990Z,78.25
2022-09-24T21:54:18.383Z,78.35
2022-09-24T21:56:46.970Z,78.98
2022-09-24T21:59:34.233Z,78.87
2022-09-24T22:02:03.191Z,78.61
2022-09-24T22:04:33.296Z,78.93
2022-09-24T22:07:02.141Z,78.97
2022-09-24T22:09:38.537Z,78.78
2022-09-24T22:12:07.330Z,78.72
2022-09-24T22:14:35.727Z,78.35
2022-09-24T22:17:04.864Z,78.65
2022-09-24T22:19:33.621Z,78.42
2022-09-24T22:22:01.939Z,78.21
2022-09-24T22:24:33.545Z,78.12
2022-09-24T22:27:01.633Z,78.13
2022-09-24T22:29:29.892Z,78.04
2022-09-24T22:31:57.517Z,78.17
2022-09-24T22:34:43.734Z,78.82
2022-09-24T22:37:11.598Z,78.20
2022-09-24T22:39:39.312Z,78.19
2022-09-24T22:42:07.120Z,78.32
2022-09-24T22:44:34.601Z,78.17
2022-09-24T22:47:03.114Z,78.20
2022-09-24T22:49:37.421Z,78.05
2022-09-24T22:52:05.684Z,78.47
2022-09-24T22:54:33.208Z,78.60
2022-09-24T22:57:03.434Z,78.60
2022-09-24T22:59:31.722Z,78.54
2022-09-24T23:01:59.587Z,78.74
2022-09-24T23:04:27.255Z,78.80
2022-09-24T23:06:54.847Z,78.90
2022-09-24T23:09:22.547Z,78.59
2022-09-24T23:11:50.125Z,78.41
2022-09-24T23:14:17.910Z,78.41
2022-09-24T23:16:46.876Z,78.21
2022-09-24T23:19:19.818Z,78.22
2022-09-24T23:21:47.725Z,78.10
2022-09-24T23:24:18.917Z,78.23
2022-09-24T23:26:47.620Z,78.03
2022-09-24T23:29:15.582Z,78.03
2022-09-24T23:31:43.782Z,78.23
2022-09-24T23:34:14.278Z,78.22
2022-09-24T23:36:42.682Z,78.11
2022-09-24T23:39:10.402Z,78.12
2022-09-24T23:41:38.819Z,78.02
2022-09-24T23:44:06.926Z,78.21
2022-09-24T23:46:34.657Z,77.97
2022-09-24T23:49:02.946Z,78.26
2022-09-24T23:51:30.830Z,78.51
2022-09-24T23:53:58.372Z,78.60
2022-09-24T23:56:28.375Z,78.36
2022-09-24T23:58:57.688Z,78.35
